Terminal Aerodrome Forecast
Issued by NWS Greer, SC

Home | Current Version | Previous Version | Text Only | Print | Product List | Glossary On
Versions: 1 2 3 4 5 6 7 8 9 10 11 12 13 14 15 16 17 18
000
FTUS42 KGSP 300600 CCA
TAFGSP
TAF COR
KGSP 300606Z 3006/0106 00000KT 3SM BR SCT002 SCT060
      TEMPO 3006/3010 1/2SM FG BKN002
     FM301000 00000KT 4SM BR SCT007
      TEMPO 3010/3012 2SM BR BKN007
     FM301400 35003KT P6SM FEW050
     FM302300 00000KT P6SM FEW250=

USA.gov is the U.S. government's official web portal to all federal, state and local government web resources and services.